createdAt,value
2023-02-14T00:01:57.761Z,6.79
2023-02-14T00:04:27.790Z,6.77
2023-02-14T00:06:56.238Z,6.78
2023-02-14T00:09:25.116Z,6.71
2023-02-14T00:11:53.634Z,6.68
2023-02-14T00:14:39.537Z,6.64
2023-02-14T00:17:07.945Z,6.61
2023-02-14T00:19:38.098Z,6.55
2023-02-14T00:22:07.245Z,6.50
2023-02-14T00:24:35.836Z,6.47
2023-02-14T00:27:04.126Z,6.41
2023-02-14T00:29:33.862Z,6.42
2023-02-14T00:32:03.244Z,6.46
2023-02-14T00:34:33.544Z,6.44
2023-02-14T00:37:03.883Z,6.48
2023-02-14T00:39:32.925Z,6.46
2023-02-14T00:42:01.264Z,6.44
2023-02-14T00:44:29.606Z,6.40
2023-02-14T00:46:57.965Z,6.39
2023-02-14T00:49:26.611Z,6.38
2023-02-14T00:51:55.226Z,6.31
2023-02-14T00:54:29.856Z,6.16
2023-02-14T00:56:58.670Z,6.19
2023-02-14T00:59:27.264Z,6.23
2023-02-14T01:01:55.812Z,6.32
2023-02-14T01:04:24.371Z,6.49
2023-02-14T01:06:53.011Z,6.63
2023-02-14T01:09:21.739Z,6.78
2023-02-14T01:11:51.626Z,6.91
2023-02-14T01:14:20.295Z,7.05
2023-02-14T01:16:48.866Z,7.08
2023-02-14T01:19:17.448Z,7.13
2023-02-14T01:21:46.231Z,7.14
2023-02-14T01:24:14.834Z,7.17
2023-02-14T01:26:43.678Z,7.14
2023-02-14T01:29:13.595Z,7.13
2023-02-14T01:31:42.293Z,7.16
2023-02-14T01:34:10.746Z,7.22
2023-02-14T01:36:40.790Z,7.22
2023-02-14T01:39:13.810Z,7.22
2023-02-14T01:41:48.684Z,7.23
2023-02-14T01:44:54.254Z,7.27
2023-02-14T01:47:25.312Z,7.29
2023-02-14T01:49:58.439Z,7.29
2023-02-14T01:52:32.166Z,7.32
2023-02-14T01:55:04.146Z,7.30
2023-02-14T01:57:38.210Z,7.26
2023-02-14T02:00:26.517Z,7.23
2023-02-14T02:02:57.558Z,7.19
2023-02-14T02:05:26.298Z,7.14
2023-02-14T02:07:59.129Z,7.13
2023-02-14T02:10:27.937Z,7.12
2023-02-14T02:12:57.666Z,7.13
2023-02-14T02:15:29.530Z,7.11
2023-02-14T02:18:07.449Z,7.14
2023-02-14T02:21:10.087Z,7.09
2023-02-14T02:24:17.477Z,7.07
2023-02-14T02:27:30.879Z,7.04
2023-02-14T02:30:33.346Z,7.00
2023-02-14T02:33:30.849Z,6.98
2023-02-14T02:36:26.024Z,6.98
2023-02-14T02:39:12.301Z,6.96
2023-02-14T02:41:52.081Z,6.99
2023-02-14T02:44:29.452Z,7.05
2023-02-14T02:47:07.621Z,7.08
2023-02-14T02:50:15.766Z,7.08
2023-02-14T02:53:06.766Z,7.13
2023-02-14T02:56:01.071Z,7.11
2023-02-14T02:58:35.847Z,7.14
2023-02-14T03:01:10.980Z,7.26
2023-02-14T03:04:00.009Z,7.32
2023-02-14T03:06:28.512Z,7.40
2023-02-14T03:08:58.402Z,7.47
2023-02-14T03:11:28.097Z,7.48
2023-02-14T03:14:13.718Z,7.49
2023-02-14T03:16:56.150Z,7.47
2023-02-14T03:20:11.380Z,7.45
2023-02-14T03:22:50.239Z,7.38
2023-02-14T03:25:33.284Z,7.34
2023-02-14T03:28:11.406Z,7.31
2023-02-14T03:30:48.621Z,7.30
2023-02-14T03:33:24.530Z,7.30
2023-02-14T03:36:02.238Z,7.32
2023-02-14T03:38:37.088Z,7.38
2023-02-14T03:41:10.810Z,7.37
2023-02-14T03:43:44.339Z,7.41
2023-02-14T03:46:19.740Z,7.44
2023-02-14T03:48:52.038Z,7.41
2023-02-14T03:51:23.960Z,7.40
2023-02-14T03:53:58.496Z,7.41
2023-02-14T03:56:36.359Z,7.39
2023-02-14T03:59:09.894Z,7.44
2023-02-14T04:01:47.178Z,7.44
2023-02-14T04:04:19.429Z,7.45
2023-02-14T04:06:48.079Z,7.48
2023-02-14T04:09:16.618Z,7.56
2023-02-14T04:11:47.219Z,7.63
2023-02-14T04:14:15.969Z,7.66
2023-02-14T04:16:58.209Z,7.69
2023-02-14T04:19:26.922Z,7.72
2023-02-14T04:21:55.552Z,7.75
2023-02-14T04:24:24.026Z,7.77
2023-02-14T04:40:17.677Z,7.88
2023-02-14T04:42:46.098Z,7.90
2023-02-14T04:45:14.888Z,7.84
2023-02-14T04:47:43.620Z,7.81
2023-02-14T04:50:12.599Z,7.80
2023-02-14T04:52:41.442Z,7.82
2023-02-14T04:55:11.276Z,7.81
2023-02-14T04:57:41.361Z,7.80
2023-02-14T05:00:11.453Z,7.81
2023-02-14T05:02:40.317Z,7.79
2023-02-14T05:05:09.282Z,7.75
2023-02-14T05:07:37.781Z,7.71
2023-02-14T05:10:07.902Z,7.68
2023-02-14T05:12:36.643Z,7.66
2023-02-14T05:15:06.916Z,7.63
2023-02-14T05:17:36.608Z,7.68
2023-02-14T05:20:06.183Z,7.73
2023-02-14T05:22:34.834Z,7.75
2023-02-14T05:25:03.431Z,7.85
2023-02-14T05:27:32.207Z,7.85
2023-02-14T05:30:00.891Z,7.89
2023-02-14T05:32:30.856Z,7.90
2023-02-14T05:35:01.093Z,7.96
2023-02-14T05:37:30.133Z,7.99
2023-02-14T05:39:58.782Z,8.01
2023-02-14T05:42:27.537Z,8.04
2023-02-14T05:44:56.312Z,8.10
2023-02-14T05:47:24.850Z,8.13
2023-02-14T05:49:54.830Z,8.18
2023-02-14T05:52:23.563Z,8.18
2023-02-14T05:54:52.134Z,8.20
2023-02-14T05:57:20.964Z,8.24
2023-02-14T05:59:49.842Z,8.27
2023-02-14T06:02:18.575Z,8.32
2023-02-14T06:04:47.559Z,8.34
2023-02-14T06:07:17.556Z,8.37
2023-02-14T06:09:46.135Z,8.39
2023-02-14T06:12:14.751Z,8.41
2023-02-14T06:14:43.108Z,8.42
2023-02-14T06:17:12.386Z,8.44
2023-02-14T06:19:40.957Z,8.46
2023-02-14T06:22:09.626Z,8.47
2023-02-14T06:24:39.621Z,8.50
2023-02-14T06:27:08.157Z,8.49
2023-02-14T06:29:39.000Z,8.51
2023-02-14T06:32:07.632Z,8.53
2023-02-14T06:34:36.599Z,8.54
2023-02-14T06:37:05.122Z,8.55
2023-02-14T06:39:33.668Z,8.55
2023-02-14T06:42:03.724Z,8.57
2023-02-14T06:44:32.403Z,8.55
2023-02-14T06:47:01.479Z,8.52
2023-02-14T06:49:30.082Z,8.51
2023-02-14T06:51:58.731Z,8.53
2023-02-14T06:54:27.331Z,8.51
2023-02-14T06:56:55.827Z,8.52
2023-02-14T06:59:26.024Z,8.54
2023-02-14T07:01:54.729Z,8.52
2023-02-14T07:04:23.337Z,8.53
2023-02-14T07:06:51.666Z,8.53
2023-02-14T07:09:20.395Z,8.54
2023-02-14T07:11:48.814Z,8.57
2023-02-14T07:14:17.090Z,8.58
2023-02-14T07:16:46.737Z,8.62
2023-02-14T07:19:16.272Z,8.67
2023-02-14T07:21:44.755Z,8.70
2023-02-14T07:24:13.309Z,8.70
2023-02-14T07:26:41.838Z,8.69
2023-02-14T07:29:10.246Z,8.71
2023-02-14T07:31:38.560Z,8.72
2023-02-14T07:34:08.564Z,8.76
2023-02-14T07:36:39.102Z,8.84
2023-02-14T07:39:07.822Z,8.88
2023-02-14T07:41:36.272Z,8.96
2023-02-14T07:44:04.944Z,8.95
2023-02-14T07:46:33.424Z,8.95
2023-02-14T07:49:03.169Z,8.95
2023-02-14T07:51:33.209Z,8.94
2023-02-14T07:54:02.088Z,8.97
2023-02-14T07:56:30.572Z,9.01
2023-02-14T07:58:59.220Z,9.04
2023-02-14T08:01:27.786Z,9.05
2023-02-14T08:03:56.398Z,9.09
2023-02-14T08:06:26.285Z,9.15
2023-02-14T08:08:56.108Z,9.20
2023-02-14T08:11:42.110Z,9.25
2023-02-14T08:14:10.426Z,9.29
2023-02-14T08:16:39.930Z,9.32
2023-02-14T08:19:08.373Z,9.35
2023-02-14T08:21:36.832Z,9.39
2023-02-14T08:24:07.735Z,9.45
2023-02-14T08:26:36.164Z,9.48
2023-02-14T08:29:04.958Z,9.50
2023-02-14T08:31:36.079Z,9.50
2023-02-14T08:34:06.510Z,9.53
2023-02-14T08:36:36.002Z,9.55
2023-02-14T08:39:05.963Z,9.63
2023-02-14T08:41:36.657Z,9.70
2023-02-14T08:44:05.666Z,9.75
2023-02-14T08:46:34.061Z,9.78
2023-02-14T08:49:02.434Z,9.78
2023-02-14T08:51:31.018Z,9.80
2023-02-14T08:53:59.774Z,9.84
2023-02-14T08:56:28.228Z,9.89
2023-02-14T08:58:58.284Z,9.88
2023-02-14T09:01:26.969Z,9.85
2023-02-14T09:03:55.676Z,9.79
2023-02-14T09:06:24.320Z,9.74
2023-02-14T09:08:55.445Z,9.70
2023-02-14T09:11:26.283Z,9.72
2023-02-14T09:13:55.304Z,9.75
2023-02-14T09:16:26.537Z,9.79
2023-02-14T09:18:57.058Z,9.85
2023-02-14T09:21:27.707Z,9.92
2023-02-14T09:23:56.691Z,9.97
2023-02-14T09:26:25.092Z,9.98
2023-02-14T09:28:53.554Z,10.03
2023-02-14T09:31:26.645Z,10.09
2023-02-14T09:33:55.382Z,10.12
2023-02-14T09:36:23.760Z,10.15
2023-02-14T09:38:52.220Z,10.15
2023-02-14T09:41:47.234Z,10.16
2023-02-14T09:44:26.990Z,10.23
2023-02-14T09:47:02.853Z,10.29
2023-02-14T09:49:35.023Z,10.30
2023-02-14T09:52:06.034Z,10.35
2023-02-14T09:54:37.276Z,10.44
2023-02-14T09:57:12.551Z,10.48
2023-02-14T09:59:49.438Z,10.52
2023-02-14T10:02:35.382Z,10.59
2023-02-14T10:05:13.455Z,10.67
2023-02-14T10:07:57.711Z,10.75
2023-02-14T10:10:32.679Z,10.79
2023-02-14T10:13:08.881Z,10.87
2023-02-14T10:15:41.472Z,11.09
2023-02-14T10:18:17.072Z,11.34
2023-02-14T10:20:48.453Z,11.55
2023-02-14T10:23:31.612Z,11.62
2023-02-14T10:26:03.335Z,11.59
2023-02-14T10:28:37.107Z,11.57
2023-02-14T10:31:23.320Z,11.57
2023-02-14T10:34:01.730Z,11.68
2023-02-14T10:36:46.973Z,11.68
2023-02-14T10:39:44.727Z,11.63
2023-02-14T10:42:24.681Z,11.62
2023-02-14T10:45:02.508Z,11.60
2023-02-14T10:47:41.789Z,11.68
2023-02-14T10:50:22.328Z,11.70
2023-02-14T10:52:59.777Z,11.90
2023-02-14T10:55:40.232Z,11.99
2023-02-14T10:58:13.934Z,12.17
2023-02-14T11:00:51.389Z,12.21
2023-02-14T11:03:20.610Z,12.31
2023-02-14T11:05:51.878Z,12.24
2023-02-14T11:08:27.870Z,12.11
2023-02-14T11:11:02.281Z,12.07
2023-02-14T11:13:34.336Z,12.32
2023-02-14T11:16:05.635Z,12.41
2023-02-14T11:18:37.884Z,12.53
2023-02-14T11:21:13.623Z,12.34
2023-02-14T11:23:44.179Z,12.21
2023-02-14T11:26:26.767Z,12.12
2023-02-14T11:28:59.641Z,12.11
2023-02-14T11:31:34.212Z,12.14
2023-02-14T11:34:05.277Z,12.14
2023-02-14T11:36:43.086Z,12.12
2023-02-14T11:39:27.462Z,12.08
2023-02-14T11:41:58.110Z,11.87
2023-02-14T11:44:29.216Z,11.78
2023-02-14T11:47:17.338Z,11.83
2023-02-14T11:49:56.961Z,11.86
2023-02-14T11:52:29.851Z,12.04
2023-02-14T11:54:59.860Z,12.25
2023-02-14T11:57:33.112Z,12.36
2023-02-14T12:00:06.358Z,12.37
2023-02-14T12:02:40.592Z,12.41
2023-02-14T12:05:21.195Z,12.50
2023-02-14T12:07:53.228Z,12.47
2023-02-14T12:10:27.561Z,12.59
2023-02-14T12:13:00.141Z,12.52
2023-02-14T12:15:37.551Z,12.34
2023-02-14T12:18:37.564Z,12.31
2023-02-14T12:21:20.060Z,12.40
2023-02-14T12:24:00.169Z,12.30
2023-02-14T12:26:34.003Z,12.38
2023-02-14T12:29:14.680Z,12.36
2023-02-14T12:31:45.080Z,12.42
2023-02-14T12:34:16.185Z,12.69
2023-02-14T12:36:57.724Z,12.90
2023-02-14T12:39:37.032Z,13.10
2023-02-14T12:42:18.974Z,13.20
2023-02-14T12:44:58.365Z,13.32
2023-02-14T12:47:38.310Z,13.32
2023-02-14T12:50:25.049Z,13.37
2023-02-14T12:53:29.160Z,13.48
2023-02-14T12:56:09.042Z,13.54
2023-02-14T12:58:51.498Z,13.60
2023-02-14T13:01:55.920Z,13.65
2023-02-14T13:04:49.792Z,13.68
2023-02-14T13:07:38.285Z,13.78
2023-02-14T13:10:16.818Z,13.85
2023-02-14T13:12:53.986Z,13.89
2023-02-14T13:15:30.722Z,13.98
2023-02-14T13:18:07.605Z,14.07
2023-02-14T13:20:46.145Z,14.04
2023-02-14T13:23:20.651Z,14.05
2023-02-14T13:25:55.478Z,14.07
2023-02-14T13:28:27.304Z,14.20
2023-02-14T13:30:59.911Z,14.41
2023-02-14T13:33:35.090Z,14.73
2023-02-14T13:36:09.125Z,14.98
2023-02-14T13:38:42.994Z,15.12
2023-02-14T13:41:13.565Z,15.23
2023-02-14T13:43:52.117Z,15.19
2023-02-14T13:46:23.485Z,15.23
2023-02-14T13:49:03.407Z,15.24
2023-02-14T13:51:50.158Z,15.21
2023-02-14T13:54:45.412Z,15.28
2023-02-14T13:57:31.657Z,15.19
2023-02-14T14:00:33.564Z,15.23
2023-02-14T14:03:04.121Z,15.16
2023-02-14T14:06:12.799Z,15.07
2023-02-14T14:08:44.135Z,14.88
2023-02-14T14:11:35.606Z,14.62
2023-02-14T14:14:05.967Z,14.58
2023-02-14T14:16:37.023Z,14.47
2023-02-14T14:19:32.274Z,14.40
2023-02-14T14:22:06.107Z,14.28
2023-02-14T14:24:36.331Z,14.27
2023-02-14T14:27:07.791Z,14.18
2023-02-14T14:29:39.637Z,14.28
2023-02-14T14:32:12.055Z,14.27
2023-02-14T14:34:50.606Z,14.19
2023-02-14T14:37:24.301Z,14.18
2023-02-14T14:39:55.092Z,14.28
2023-02-14T14:42:27.420Z,14.32
2023-02-14T14:44:59.699Z,14.37
2023-02-14T14:47:34.176Z,14.22
2023-02-14T14:50:11.569Z,14.22
2023-02-14T14:52:43.967Z,14.19
2023-02-14T14:55:21.454Z,14.23
2023-02-14T14:57:52.222Z,14.17
2023-02-14T15:00:24.701Z,14.15
2023-02-14T15:03:03.590Z,14.10
2023-02-14T15:05:36.487Z,14.17
2023-02-14T15:08:21.927Z,14.15
2023-02-14T15:10:55.656Z,14.35
2023-02-14T15:13:49.332Z,14.24
2023-02-14T15:16:29.562Z,14.21
2023-02-14T15:19:01.410Z,14.31
2023-02-14T15:21:32.861Z,14.20
2023-02-14T15:24:03.065Z,14.26
2023-02-14T15:26:33.895Z,14.53
2023-02-14T15:29:04.919Z,14.46
2023-02-14T15:31:37.950Z,14.30
2023-02-14T15:34:08.665Z,14.56
2023-02-14T15:36:39.039Z,14.89
2023-02-14T15:39:10.283Z,14.85
2023-02-14T15:41:45.440Z,14.35
2023-02-14T15:44:21.941Z,14.09
2023-02-14T15:46:55.440Z,13.96
2023-02-14T15:49:33.616Z,13.91
2023-02-14T15:52:05.486Z,13.84
2023-02-14T15:54:38.714Z,13.86
2023-02-14T15:57:09.346Z,13.95
2023-02-14T15:59:42.953Z,13.95
2023-02-14T16:02:28.875Z,14.08
2023-02-14T16:05:06.041Z,15.12
2023-02-14T16:07:36.482Z,16.10
2023-02-14T16:10:25.754Z,15.39
2023-02-14T16:13:02.080Z,16.17
2023-02-14T16:15:33.260Z,16.49
2023-02-14T16:18:07.655Z,16.17
2023-02-14T16:20:43.357Z,16.25
2023-02-14T16:23:26.499Z,16.07
2023-02-14T16:25:57.723Z,15.90
2023-02-14T16:28:30.951Z,15.64
2023-02-14T16:31:03.331Z,14.73
2023-02-14T16:33:35.784Z,14.24
2023-02-14T16:36:09.581Z,13.94
2023-02-14T16:38:44.089Z,13.73
2023-02-14T16:41:20.972Z,13.60
2023-02-14T16:43:50.239Z,13.50
2023-02-14T16:46:22.187Z,13.39
2023-02-14T16:48:53.032Z,13.35
2023-02-14T16:51:23.554Z,13.38
2023-02-14T16:53:55.453Z,13.22
2023-02-14T16:56:29.866Z,13.11
2023-02-14T16:59:03.221Z,13.06
2023-02-14T17:01:37.360Z,12.93
2023-02-14T17:04:08.919Z,12.94
2023-02-14T17:06:50.237Z,12.87
2023-02-14T17:09:26.360Z,12.77
2023-02-14T17:11:59.072Z,12.64
2023-02-14T17:14:31.685Z,12.58
2023-02-14T17:17:01.695Z,12.46
2023-02-14T17:19:30.297Z,12.38
2023-02-14T17:22:02.036Z,12.36
2023-02-14T17:24:34.737Z,12.34
2023-02-14T17:27:03.467Z,12.33
2023-02-14T17:29:32.112Z,12.27
2023-02-14T17:32:02.926Z,12.21
2023-02-14T17:34:32.886Z,12.04
2023-02-14T17:37:03.082Z,11.99
2023-02-14T17:39:34.515Z,11.89
2023-02-14T17:42:04.083Z,11.80
2023-02-14T17:44:41.540Z,11.81
2023-02-14T17:47:10.070Z,11.66
2023-02-14T17:49:39.134Z,11.57
2023-02-14T17:52:07.698Z,11.56
2023-02-14T17:54:39.971Z,11.54
2023-02-14T17:57:10.403Z,11.49
2023-02-14T17:59:39.459Z,11.52
2023-02-14T18:02:09.031Z,11.44
2023-02-14T18:04:37.489Z,11.51
2023-02-14T18:07:06.981Z,11.39
2023-02-14T18:09:35.390Z,11.28
2023-02-14T18:12:05.513Z,11.20
2023-02-14T18:14:34.605Z,11.13
2023-02-14T18:17:07.213Z,11.04
2023-02-14T18:19:39.060Z,10.97
2023-02-14T18:22:07.839Z,10.91
2023-02-14T18:24:37.064Z,10.91
2023-02-14T18:27:09.070Z,10.83
2023-02-14T18:29:40.378Z,10.75
2023-02-14T18:32:10.860Z,10.65
2023-02-14T18:34:40.002Z,10.64
2023-02-14T18:37:09.135Z,10.64
2023-02-14T18:39:37.790Z,10.58
2023-02-14T18:42:09.970Z,10.54
2023-02-14T18:44:38.553Z,10.52
2023-02-14T18:47:07.530Z,10.45
2023-02-14T18:49:37.337Z,10.42
2023-02-14T18:52:07.211Z,10.34
2023-02-14T18:54:37.328Z,10.36
2023-02-14T18:57:09.313Z,10.36
2023-02-14T18:59:38.641Z,10.44
2023-02-14T19:02:07.801Z,10.42
2023-02-14T19:04:36.552Z,10.64
2023-02-14T19:07:06.108Z,10.83
2023-02-14T19:09:40.187Z,10.93
2023-02-14T19:12:11.218Z,11.03
2023-02-14T19:14:42.180Z,10.96
2023-02-14T19:17:12.545Z,10.96
2023-02-14T19:19:42.012Z,11.03
2023-02-14T19:22:13.397Z,11.07
2023-02-14T19:24:42.386Z,11.05
2023-02-14T19:27:14.704Z,11.07
2023-02-14T19:29:45.022Z,11.08
2023-02-14T19:32:15.040Z,10.98
2023-02-14T19:34:43.753Z,10.87
2023-02-14T19:37:13.386Z,10.94
2023-02-14T19:39:41.946Z,10.94
2023-02-14T19:42:10.738Z,10.89
2023-02-14T19:44:43.816Z,10.86
2023-02-14T19:47:26.909Z,10.87
2023-02-14T19:49:59.824Z,10.88
2023-02-14T19:52:28.609Z,10.89
2023-02-14T19:54:58.548Z,10.78
2023-02-14T19:57:27.419Z,10.72
2023-02-14T19:59:57.259Z,10.76
2023-02-14T20:02:26.139Z,10.74
2023-02-14T20:04:59.168Z,10.71
2023-02-14T20:07:28.026Z,10.67
2023-02-14T20:09:56.699Z,10.63
2023-02-14T20:12:25.743Z,10.56
2023-02-14T20:14:56.884Z,10.56
2023-02-14T20:17:27.691Z,10.58
2023-02-14T20:19:56.430Z,10.47
2023-02-14T20:22:25.702Z,10.43
2023-02-14T20:24:54.225Z,10.39
2023-02-14T20:27:24.878Z,10.43
2023-02-14T20:29:53.710Z,10.39
2023-02-14T20:32:23.422Z,10.34
2023-02-14T20:34:53.472Z,10.26
2023-02-14T20:37:23.233Z,10.27
2023-02-14T20:39:52.920Z,10.23
2023-02-14T20:42:22.304Z,10.17
2023-02-14T20:44:51.048Z,10.20
2023-02-14T20:47:20.384Z,10.23
2023-02-14T20:49:49.093Z,10.41
2023-02-14T20:52:20.212Z,10.35
2023-02-14T20:54:49.889Z,10.26
2023-02-14T20:57:18.475Z,10.26
2023-02-14T20:59:48.071Z,10.15
2023-02-14T21:02:17.859Z,10.14
2023-02-14T21:04:46.675Z,10.01
2023-02-14T21:07:16.347Z,9.99
2023-02-14T21:09:54.281Z,10.00
2023-02-14T21:12:23.213Z,9.96
2023-02-14T21:14:53.647Z,9.99
2023-02-14T21:17:22.344Z,9.93
2023-02-14T21:19:54.758Z,9.85
2023-02-14T21:22:24.763Z,9.88
2023-02-14T21:24:55.608Z,9.90
2023-02-14T21:27:24.484Z,9.86
2023-02-14T21:29:52.910Z,9.90
2023-02-14T21:32:21.453Z,9.88
2023-02-14T21:34:55.026Z,9.98
2023-02-14T21:37:23.736Z,9.88
2023-02-14T21:39:52.089Z,9.83
2023-02-14T21:42:22.285Z,9.80
2023-02-14T21:45:08.558Z,9.92
2023-02-14T21:47:38.557Z,9.84
2023-02-14T21:50:26.472Z,9.87
2023-02-14T21:52:55.131Z,9.85
2023-02-14T21:55:23.824Z,9.87
2023-02-14T21:57:53.953Z,9.87
2023-02-14T22:00:24.535Z,9.87
2023-02-14T22:02:53.136Z,9.84
2023-02-14T22:05:21.983Z,9.85
2023-02-14T22:07:51.450Z,9.86
2023-02-14T22:10:20.531Z,9.85
2023-02-14T22:12:50.931Z,9.86
2023-02-14T22:15:22.050Z,9.88
2023-02-14T22:17:50.752Z,9.88
2023-02-14T22:20:20.826Z,9.87
2023-02-14T22:22:49.511Z,9.80
2023-02-14T22:25:19.028Z,9.80
2023-02-14T22:27:50.526Z,9.80
2023-02-14T22:30:22.063Z,9.78
2023-02-14T22:32:51.355Z,9.70
2023-02-14T22:35:19.665Z,9.73
2023-02-14T22:37:49.944Z,9.71
2023-02-14T22:40:18.591Z,9.84
2023-02-14T22:42:47.338Z,9.76
2023-02-14T22:45:16.230Z,9.72
2023-02-14T22:47:46.330Z,9.73
2023-02-14T22:50:14.875Z,9.68
2023-02-14T22:52:43.404Z,9.63
2023-02-14T22:55:11.878Z,9.65
2023-02-14T22:57:40.529Z,9.71
2023-02-14T23:00:12.243Z,9.70
2023-02-14T23:02:41.009Z,9.73
2023-02-14T23:05:12.296Z,9.72
2023-02-14T23:07:41.187Z,9.74
2023-02-14T23:10:10.876Z,9.69
2023-02-14T23:12:56.788Z,9.71
2023-02-14T23:15:42.488Z,9.66
2023-02-14T23:18:31.212Z,9.61
2023-02-14T23:21:19.085Z,9.62
2023-02-14T23:23:47.589Z,9.63
2023-02-14T23:26:21.310Z,9.58
2023-02-14T23:28:50.017Z,9.53
2023-02-14T23:31:18.641Z,9.49
2023-02-14T23:33:47.322Z,9.50
2023-02-14T23:36:17.482Z,9.52
2023-02-14T23:38:46.459Z,9.48
2023-02-14T23:41:32.144Z,9.53
2023-02-14T23:44:01.235Z,9.49
2023-02-14T23:46:29.843Z,9.45
2023-02-14T23:48:58.367Z,9.49
2023-02-14T23:51:28.197Z,9.46
2023-02-14T23:53:56.630Z,9.41
2023-02-14T23:56:26.292Z,9.37
2023-02-14T23:58:54.987Z,9.41
